sensor_id;sensor_type;location;lat;lon;timestamp;P1;durP1;ratioP1;P2;durP2;ratioP2
24751;SDS011;27246;52.376;4.628;2022-11-13T00:04:15;19.35;;;14.35;;
24751;SDS011;27246;52.376;4.628;2022-11-13T00:09:35;16.83;;;12.00;;
24751;SDS011;27246;52.376;4.628;2022-11-13T00:14:56;14.00;;;12.50;;
24751;SDS011;27246;52.376;4.628;2022-11-13T00:20:17;14.55;;;12.02;;
24751;SDS011;27246;52.376;4.628;2022-11-13T00:25:38;14.00;;;11.57;;
24751;SDS011;27246;52.376;4.628;2022-11-13T00:30:59;15.15;;;12.18;;
24751;SDS011;27246;52.376;4.628;2022-11-13T00:36:22;14.65;;;11.95;;
24751;SDS011;27246;52.376;4.628;2022-11-13T00:41:45;12.52;;;11.13;;
24751;SDS011;27246;52.376;4.628;2022-11-13T00:47:08;14.07;;;10.88;;
24751;SDS011;27246;52.376;4.628;2022-11-13T00:52:34;13.43;;;10.65;;
24751;SDS011;27246;52.376;4.628;2022-11-13T00:57:55;13.65;;;10.90;;
24751;SDS011;27246;52.376;4.628;2022-11-13T01:03:17;14.15;;;10.82;;
24751;SDS011;27246;52.376;4.628;2022-11-13T01:08:40;11.10;;;9.85;;
24751;SDS011;27246;52.376;4.628;2022-11-13T01:19:20;13.57;;;11.25;;
24751;SDS011;27246;52.376;4.628;2022-11-13T01:24:41;12.50;;;10.10;;
24751;SDS011;27246;52.376;4.628;2022-11-13T01:30:03;13.15;;;11.32;;
24751;SDS011;27246;52.376;4.628;2022-11-13T01:35:23;15.13;;;12.13;;
24751;SDS011;27246;52.376;4.628;2022-11-13T01:51:39;12.68;;;11.38;;
24751;SDS011;27246;52.376;4.628;2022-11-13T01:57:02;13.27;;;10.57;;
24751;SDS011;27246;52.376;4.628;2022-11-13T02:02:24;12.88;;;11.25;;
24751;SDS011;27246;52.376;4.628;2022-11-13T02:07:44;17.70;;;12.52;;
24751;SDS011;27246;52.376;4.628;2022-11-13T02:13:05;14.05;;;10.90;;
24751;SDS011;27246;52.376;4.628;2022-11-13T02:18:25;18.77;;;12.65;;
24751;SDS011;27246;52.376;4.628;2022-11-13T02:23:57;14.88;;;12.15;;
24751;SDS011;27246;52.376;4.628;2022-11-13T02:29:24;15.25;;;12.63;;
24751;SDS011;27246;52.376;4.628;2022-11-13T02:34:45;16.50;;;12.95;;
24751;SDS011;27246;52.376;4.628;2022-11-13T02:40:05;17.55;;;12.93;;
24751;SDS011;27246;52.376;4.628;2022-11-13T02:45:27;14.82;;;12.38;;
24751;SDS011;27246;52.376;4.628;2022-11-13T02:50:50;14.32;;;12.18;;
24751;SDS011;27246;52.376;4.628;2022-11-13T02:56:11;15.10;;;12.30;;
24751;SDS011;27246;52.376;4.628;2022-11-13T03:01:30;15.82;;;12.13;;
24751;SDS011;27246;52.376;4.628;2022-11-13T03:06:54;16.02;;;12.07;;
24751;SDS011;27246;52.376;4.628;2022-11-13T03:12:19;16.08;;;11.93;;
24751;SDS011;27246;52.376;4.628;2022-11-13T03:17:56;15.00;;;13.07;;
24751;SDS011;27246;52.376;4.628;2022-11-13T03:23:17;14.27;;;11.75;;
24751;SDS011;27246;52.376;4.628;2022-11-13T03:28:37;18.80;;;12.43;;
24751;SDS011;27246;52.376;4.628;2022-11-13T03:33:58;15.45;;;12.05;;
24751;SDS011;27246;52.376;4.628;2022-11-13T03:39:18;13.93;;;12.48;;
24751;SDS011;27246;52.376;4.628;2022-11-13T03:44:39;15.40;;;12.00;;
24751;SDS011;27246;52.376;4.628;2022-11-13T03:49:59;14.85;;;12.38;;
24751;SDS011;27246;52.376;4.628;2022-11-13T03:55:20;13.90;;;11.90;;
24751;SDS011;27246;52.376;4.628;2022-11-13T04:00:44;15.85;;;11.90;;
24751;SDS011;27246;52.376;4.628;2022-11-13T04:06:05;15.55;;;12.20;;
24751;SDS011;27246;52.376;4.628;2022-11-13T04:17:14;15.10;;;10.88;;
24751;SDS011;27246;52.376;4.628;2022-11-13T04:22:35;17.15;;;12.43;;
24751;SDS011;27246;52.376;4.628;2022-11-13T04:28:01;14.18;;;10.80;;
24751;SDS011;27246;52.376;4.628;2022-11-13T04:33:29;12.35;;;10.13;;
24751;SDS011;27246;52.376;4.628;2022-11-13T04:38:50;12.82;;;10.38;;
24751;SDS011;27246;52.376;4.628;2022-11-13T04:44:10;12.85;;;10.63;;
24751;SDS011;27246;52.376;4.628;2022-11-13T04:49:31;12.75;;;9.77;;
24751;SDS011;27246;52.376;4.628;2022-11-13T04:54:51;13.40;;;10.20;;
24751;SDS011;27246;52.376;4.628;2022-11-13T05:00:12;13.18;;;9.57;;
24751;SDS011;27246;52.376;4.628;2022-11-13T05:05:32;11.95;;;9.57;;
24751;SDS011;27246;52.376;4.628;2022-11-13T05:10:53;14.65;;;10.23;;
24751;SDS011;27246;52.376;4.628;2022-11-13T05:21:34;12.05;;;10.30;;
24751;SDS011;27246;52.376;4.628;2022-11-13T05:26:56;11.68;;;9.05;;
24751;SDS011;27246;52.376;4.628;2022-11-13T05:32:18;11.07;;;9.68;;
24751;SDS011;27246;52.376;4.628;2022-11-13T05:37:39;12.50;;;9.75;;
24751;SDS011;27246;52.376;4.628;2022-11-13T05:48:19;11.50;;;9.70;;
24751;SDS011;27246;52.376;4.628;2022-11-13T05:53:40;9.68;;;7.97;;
24751;SDS011;27246;52.376;4.628;2022-11-13T05:59:01;10.85;;;9.73;;
24751;SDS011;27246;52.376;4.628;2022-11-13T06:04:23;11.18;;;9.57;;
24751;SDS011;27246;52.376;4.628;2022-11-13T06:09:43;11.65;;;9.93;;
24751;SDS011;27246;52.376;4.628;2022-11-13T06:15:04;10.70;;;9.05;;
24751;SDS011;27246;52.376;4.628;2022-11-13T06:20:25;10.13;;;9.10;;
24751;SDS011;27246;52.376;4.628;2022-11-13T06:25:46;9.77;;;8.77;;
24751;SDS011;27246;52.376;4.628;2022-11-13T06:31:07;11.15;;;8.77;;
24751;SDS011;27246;52.376;4.628;2022-11-13T06:42:20;11.38;;;9.25;;
24751;SDS011;27246;52.376;4.628;2022-11-13T06:47:41;11.55;;;9.43;;
24751;SDS011;27246;52.376;4.628;2022-11-13T06:53:01;12.45;;;8.70;;
24751;SDS011;27246;52.376;4.628;2022-11-13T07:03:42;13.02;;;9.48;;
24751;SDS011;27246;52.376;4.628;2022-11-13T07:09:02;10.77;;;9.10;;
24751;SDS011;27246;52.376;4.628;2022-11-13T07:14:22;11.23;;;10.05;;
24751;SDS011;27246;52.376;4.628;2022-11-13T07:25:26;15.75;;;10.95;;
24751;SDS011;27246;52.376;4.628;2022-11-13T07:30:47;14.75;;;10.30;;
24751;SDS011;27246;52.376;4.628;2022-11-13T07:36:08;12.88;;;9.68;;
24751;SDS011;27246;52.376;4.628;2022-11-13T07:41:30;13.70;;;10.13;;
24751;SDS011;27246;52.376;4.628;2022-11-13T07:46:51;14.00;;;10.38;;
24751;SDS011;27246;52.376;4.628;2022-11-13T07:57:32;10.90;;;9.38;;
24751;SDS011;27246;52.376;4.628;2022-11-13T08:02:52;12.73;;;9.52;;
24751;SDS011;27246;52.376;4.628;2022-11-13T08:08:13;10.77;;;8.93;;
24751;SDS011;27246;52.376;4.628;2022-11-13T08:13:36;11.55;;;9.55;;
24751;SDS011;27246;52.376;4.628;2022-11-13T08:18:57;13.27;;;10.02;;
24751;SDS011;27246;52.376;4.628;2022-11-13T08:24:38;12.07;;;10.07;;
24751;SDS011;27246;52.376;4.628;2022-11-13T08:29:58;13.88;;;9.90;;
24751;SDS011;27246;52.376;4.628;2022-11-13T08:35:19;11.32;;;9.38;;
24751;SDS011;27246;52.376;4.628;2022-11-13T08:40:46;10.75;;;9.00;;
24751;SDS011;27246;52.376;4.628;2022-11-13T08:46:07;14.40;;;9.93;;
24751;SDS011;27246;52.376;4.628;2022-11-13T08:51:29;21.92;;;14.70;;
24751;SDS011;27246;52.376;4.628;2022-11-13T08:57:02;31.05;;;18.02;;
24751;SDS011;27246;52.376;4.628;2022-11-13T09:02:27;25.70;;;17.55;;
24751;SDS011;27246;52.376;4.628;2022-11-13T09:07:48;28.08;;;16.65;;
24751;SDS011;27246;52.376;4.628;2022-11-13T09:13:15;22.08;;;14.98;;
24751;SDS011;27246;52.376;4.628;2022-11-13T09:18:43;21.17;;;14.05;;
24751;SDS011;27246;52.376;4.628;2022-11-13T09:24:03;15.63;;;12.80;;
24751;SDS011;27246;52.376;4.628;2022-11-13T09:29:25;17.98;;;12.45;;
24751;SDS011;27246;52.376;4.628;2022-11-13T09:34:47;15.00;;;10.88;;
24751;SDS011;27246;52.376;4.628;2022-11-13T09:52:15;11.20;;;8.43;;
24751;SDS011;27246;52.376;4.628;2022-11-13T10:03:42;8.00;;;5.95;;
24751;SDS011;27246;52.376;4.628;2022-11-13T10:15:09;5.30;;;3.63;;
24751;SDS011;27246;52.376;4.628;2022-11-13T10:20:35;4.53;;;4.05;;
24751;SDS011;27246;52.376;4.628;2022-11-13T10:26:23;9.02;;;4.93;;
24751;SDS011;27246;52.376;4.628;2022-11-13T10:31:45;6.25;;;4.63;;
24751;SDS011;27246;52.376;4.628;2022-11-13T10:42:39;4.47;;;3.95;;
24751;SDS011;27246;52.376;4.628;2022-11-13T10:48:00;4.00;;;3.20;;
24751;SDS011;27246;52.376;4.628;2022-11-13T10:53:24;5.13;;;4.20;;
24751;SDS011;27246;52.376;4.628;2022-11-13T11:04:30;5.75;;;4.53;;
24751;SDS011;27246;52.376;4.628;2022-11-13T11:09:50;5.47;;;4.85;;
24751;SDS011;27246;52.376;4.628;2022-11-13T11:15:19;5.55;;;4.95;;
24751;SDS011;27246;52.376;4.628;2022-11-13T11:20:46;6.07;;;5.47;;
24751;SDS011;27246;52.376;4.628;2022-11-13T11:26:21;5.32;;;4.82;;
24751;SDS011;27246;52.376;4.628;2022-11-13T11:32:00;6.28;;;5.32;;
24751;SDS011;27246;52.376;4.628;2022-11-13T11:37:26;6.20;;;5.20;;
24751;SDS011;27246;52.376;4.628;2022-11-13T11:43:15;6.05;;;5.20;;
24751;SDS011;27246;52.376;4.628;2022-11-13T11:48:36;5.88;;;5.20;;
24751;SDS011;27246;52.376;4.628;2022-11-13T11:59:49;5.50;;;4.90;;
24751;SDS011;27246;52.376;4.628;2022-11-13T12:05:21;5.43;;;4.53;;
24751;SDS011;27246;52.376;4.628;2022-11-13T12:11:00;5.90;;;4.38;;
24751;SDS011;27246;52.376;4.628;2022-11-13T12:16:39;8.10;;;5.07;;
24751;SDS011;27246;52.376;4.628;2022-11-13T12:22:21;5.80;;;4.28;;
24751;SDS011;27246;52.376;4.628;2022-11-13T12:39:28;5.97;;;4.78;;
24751;SDS011;27246;52.376;4.628;2022-11-13T12:55:52;4.95;;;4.10;;
24751;SDS011;27246;52.376;4.628;2022-11-13T13:01:19;15.95;;;5.20;;
24751;SDS011;27246;52.376;4.628;2022-11-13T13:06:44;5.60;;;3.90;;
24751;SDS011;27246;52.376;4.628;2022-11-13T13:12:37;5.32;;;4.28;;
24751;SDS011;27246;52.376;4.628;2022-11-13T13:23:48;6.85;;;4.50;;
24751;SDS011;27246;52.376;4.628;2022-11-13T13:29:20;6.00;;;4.03;;
24751;SDS011;27246;52.376;4.628;2022-11-13T13:34:48;4.38;;;3.95;;
24751;SDS011;27246;52.376;4.628;2022-11-13T13:46:17;6.93;;;4.30;;
24751;SDS011;27246;52.376;4.628;2022-11-13T13:51:53;7.10;;;4.57;;
24751;SDS011;27246;52.376;4.628;2022-11-13T13:57:18;4.50;;;4.10;;
24751;SDS011;27246;52.376;4.628;2022-11-13T14:20:54;9.45;;;5.82;;
24751;SDS011;27246;52.376;4.628;2022-11-13T14:26:17;11.15;;;7.00;;
24751;SDS011;27246;52.376;4.628;2022-11-13T14:31:40;11.18;;;7.82;;
24751;SDS011;27246;52.376;4.628;2022-11-13T14:37:06;10.13;;;8.07;;
24751;SDS011;27246;52.376;4.628;2022-11-13T14:49:28;10.32;;;7.88;;
24751;SDS011;27246;52.376;4.628;2022-11-13T14:55:04;9.43;;;7.80;;
24751;SDS011;27246;52.376;4.628;2022-11-13T15:12:11;11.00;;;8.50;;
24751;SDS011;27246;52.376;4.628;2022-11-13T15:17:35;10.35;;;8.75;;
24751;SDS011;27246;52.376;4.628;2022-11-13T15:28:36;8.75;;;7.43;;
24751;SDS011;27246;52.376;4.628;2022-11-13T15:33:56;11.68;;;8.85;;
24751;SDS011;27246;52.376;4.628;2022-11-13T15:39:20;10.55;;;9.02;;
24751;SDS011;27246;52.376;4.628;2022-11-13T15:44:43;10.43;;;9.32;;
24751;SDS011;27246;52.376;4.628;2022-11-13T15:50:06;12.77;;;10.07;;
24751;SDS011;27246;52.376;4.628;2022-11-13T15:55:35;11.60;;;9.80;;
24751;SDS011;27246;52.376;4.628;2022-11-13T16:00:55;20.73;;;15.75;;
24751;SDS011;27246;52.376;4.628;2022-11-13T16:06:20;10.95;;;9.50;;
24751;SDS011;27246;52.376;4.628;2022-11-13T16:11:48;13.38;;;10.93;;
24751;SDS011;27246;52.376;4.628;2022-11-13T16:17:16;13.57;;;11.30;;
24751;SDS011;27246;52.376;4.628;2022-11-13T16:22:40;13.73;;;9.95;;
24751;SDS011;27246;52.376;4.628;2022-11-13T16:28:04;10.10;;;8.35;;
24751;SDS011;27246;52.376;4.628;2022-11-13T16:33:33;9.70;;;8.70;;
24751;SDS011;27246;52.376;4.628;2022-11-13T16:38:55;12.82;;;9.15;;
24751;SDS011;27246;52.376;4.628;2022-11-13T16:44:17;11.35;;;9.50;;
24751;SDS011;27246;52.376;4.628;2022-11-13T16:49:37;12.60;;;10.68;;
24751;SDS011;27246;52.376;4.628;2022-11-13T16:55:03;15.68;;;11.80;;
24751;SDS011;27246;52.376;4.628;2022-11-13T17:00:26;30.48;;;20.80;;
24751;SDS011;27246;52.376;4.628;2022-11-13T17:05:50;23.48;;;16.80;;
24751;SDS011;27246;52.376;4.628;2022-11-13T17:11:12;18.35;;;13.02;;
24751;SDS011;27246;52.376;4.628;2022-11-13T17:16:34;18.20;;;13.15;;
24751;SDS011;27246;52.376;4.628;2022-11-13T17:22:10;17.92;;;12.95;;
24751;SDS011;27246;52.376;4.628;2022-11-13T17:27:32;14.23;;;11.90;;
24751;SDS011;27246;52.376;4.628;2022-11-13T17:32:57;17.95;;;12.13;;
24751;SDS011;27246;52.376;4.628;2022-11-13T17:38:17;15.82;;;12.10;;
24751;SDS011;27246;52.376;4.628;2022-11-13T17:43:52;15.30;;;12.38;;
24751;SDS011;27246;52.376;4.628;2022-11-13T17:55:15;20.02;;;14.60;;
24751;SDS011;27246;52.376;4.628;2022-11-13T18:06:05;17.45;;;13.50;;
24751;SDS011;27246;52.376;4.628;2022-11-13T18:11:41;21.90;;;15.13;;
24751;SDS011;27246;52.376;4.628;2022-11-13T18:17:06;16.85;;;14.00;;
24751;SDS011;27246;52.376;4.628;2022-11-13T18:22:31;19.95;;;13.85;;
24751;SDS011;27246;52.376;4.628;2022-11-13T18:28:04;20.15;;;15.15;;
24751;SDS011;27246;52.376;4.628;2022-11-13T18:33:45;19.92;;;15.43;;
24751;SDS011;27246;52.376;4.628;2022-11-13T18:39:13;17.52;;;14.57;;
24751;SDS011;27246;52.376;4.628;2022-11-13T19:07:10;24.80;;;21.35;;
24751;SDS011;27246;52.376;4.628;2022-11-13T19:13:09;28.98;;;21.35;;
24751;SDS011;27246;52.376;4.628;2022-11-13T19:18:30;28.42;;;22.33;;
24751;SDS011;27246;52.376;4.628;2022-11-13T19:29:59;33.33;;;25.65;;
24751;SDS011;27246;52.376;4.628;2022-11-13T19:40:48;31.30;;;26.40;;
24751;SDS011;27246;52.376;4.628;2022-11-13T19:46:22;32.85;;;27.13;;
24751;SDS011;27246;52.376;4.628;2022-11-13T19:51:43;73.90;;;42.40;;
24751;SDS011;27246;52.376;4.628;2022-11-13T19:57:04;66.85;;;42.15;;
24751;SDS011;27246;52.376;4.628;2022-11-13T20:02:28;39.53;;;27.08;;
24751;SDS011;27246;52.376;4.628;2022-11-13T20:07:52;45.40;;;30.40;;
24751;SDS011;27246;52.376;4.628;2022-11-13T20:13:17;27.85;;;21.42;;
24751;SDS011;27246;52.376;4.628;2022-11-13T20:18:38;26.85;;;22.35;;
24751;SDS011;27246;52.376;4.628;2022-11-13T20:24:07;29.50;;;26.23;;
24751;SDS011;27246;52.376;4.628;2022-11-13T20:29:29;32.40;;;25.45;;
24751;SDS011;27246;52.376;4.628;2022-11-13T20:34:51;29.33;;;23.60;;
24751;SDS011;27246;52.376;4.628;2022-11-13T20:40:13;31.02;;;24.40;;
24751;SDS011;27246;52.376;4.628;2022-11-13T20:45:34;30.17;;;22.83;;
24751;SDS011;27246;52.376;4.628;2022-11-13T20:50:54;30.42;;;24.10;;
24751;SDS011;27246;52.376;4.628;2022-11-13T20:56:15;27.15;;;20.70;;
24751;SDS011;27246;52.376;4.628;2022-11-13T21:01:37;24.52;;;20.27;;
24751;SDS011;27246;52.376;4.628;2022-11-13T21:06:57;24.70;;;18.85;;
24751;SDS011;27246;52.376;4.628;2022-11-13T21:12:18;20.55;;;18.35;;
24751;SDS011;27246;52.376;4.628;2022-11-13T21:17:41;21.10;;;18.70;;
24751;SDS011;27246;52.376;4.628;2022-11-13T21:23:07;18.63;;;16.15;;
24751;SDS011;27246;52.376;4.628;2022-11-13T21:28:37;14.47;;;12.60;;
24751;SDS011;27246;52.376;4.628;2022-11-13T21:39:57;18.42;;;16.45;;
24751;SDS011;27246;52.376;4.628;2022-11-13T21:45:21;17.08;;;13.88;;
24751;SDS011;27246;52.376;4.628;2022-11-13T21:50:44;13.10;;;11.07;;
24751;SDS011;27246;52.376;4.628;2022-11-13T21:56:07;16.83;;;12.93;;
24751;SDS011;27246;52.376;4.628;2022-11-13T22:01:56;17.30;;;13.38;;
24751;SDS011;27246;52.376;4.628;2022-11-13T22:07:22;16.55;;;12.55;;
24751;SDS011;27246;52.376;4.628;2022-11-13T22:12:42;17.27;;;13.23;;
24751;SDS011;27246;52.376;4.628;2022-11-13T22:18:17;16.48;;;13.18;;
24751;SDS011;27246;52.376;4.628;2022-11-13T22:29:02;13.60;;;11.45;;
24751;SDS011;27246;52.376;4.628;2022-11-13T22:34:29;12.85;;;11.52;;
24751;SDS011;27246;52.376;4.628;2022-11-13T22:39:49;14.65;;;12.20;;
24751;SDS011;27246;52.376;4.628;2022-11-13T22:45:11;13.65;;;11.80;;
24751;SDS011;27246;52.376;4.628;2022-11-13T22:50:43;13.05;;;11.65;;
24751;SDS011;27246;52.376;4.628;2022-11-13T22:56:04;15.25;;;12.20;;
24751;SDS011;27246;52.376;4.628;2022-11-13T23:01:32;15.98;;;13.10;;
24751;SDS011;27246;52.376;4.628;2022-11-13T23:06:55;15.70;;;12.82;;
24751;SDS011;27246;52.376;4.628;2022-11-13T23:12:16;13.50;;;12.05;;
24751;SDS011;27246;52.376;4.628;2022-11-13T23:17:38;14.35;;;10.93;;
24751;SDS011;27246;52.376;4.628;2022-11-13T23:22:58;15.35;;;12.35;;
24751;SDS011;27246;52.376;4.628;2022-11-13T23:33:41;12.83;;;11.53;;
24751;SDS011;27246;52.376;4.628;2022-11-13T23:39:01;13.00;;;10.05;;
24751;SDS011;27246;52.376;4.628;2022-11-13T23:44:22;11.63;;;10.50;;
24751;SDS011;27246;52.376;4.628;2022-11-13T23:49:42;13.10;;;10.35;;
24751;SDS011;27246;52.376;4.628;2022-11-13T23:55:03;13.48;;;11.60;;
